sensor_id;sensor_type;location;lat;lon;timestamp;pressure;altitude;pressure_sealevel;temperature;humidity
8075;BME280;4080;42.676;23.372;2022-09-09T00:00:20;95292.69;;;20.24;100.00
8075;BME280;4080;42.676;23.372;2022-09-09T00:02:54;95340.81;;;20.59;100.00
8075;BME280;4080;42.676;23.372;2022-09-09T00:05:31;95340.22;;;20.74;100.00
8075;BME280;4080;42.676;23.372;2022-09-09T00:08:02;95323.16;;;20.87;100.00
8075;BME280;4080;42.676;23.372;2022-09-09T00:10:32;95354.53;;;21.07;100.00
8075;BME280;4080;42.676;23.372;2022-09-09T00:13:06;95328.50;;;20.87;100.00
8075;BME280;4080;42.676;23.372;2022-09-09T00:15:45;95342.25;;;20.86;100.00
8075;BME280;4080;42.676;23.372;2022-09-09T00:18:20;95341.59;;;20.89;100.00
8075;BME280;4080;42.676;23.372;2022-09-09T00:20:53;95323.03;;;20.45;100.00
8075;BME280;4080;42.676;23.372;2022-09-09T00:23:25;95340.13;;;20.24;100.00
8075;BME280;4080;42.676;23.372;2022-09-09T00:26:02;95335.28;;;20.08;100.00
8075;BME280;4080;42.676;23.372;2022-09-09T00:28:31;95318.13;;;20.01;100.00
8075;BME280;4080;42.676;23.372;2022-09-09T00:31:11;95313.38;;;20.06;100.00
8075;BME280;4080;42.676;23.372;2022-09-09T00:33:39;95316.41;;;19.88;100.00
8075;BME280;4080;42.676;23.372;2022-09-09T00:36:11;95315.22;;;19.68;100.00
8075;BME280;4080;42.676;23.372;2022-09-09T00:38:44;95307.19;;;19.59;100.00
8075;BME280;4080;42.676;23.372;2022-09-09T00:41:18;95243.00;;;19.16;100.00
8075;BME280;4080;42.676;23.372;2022-09-09T00:43:55;95310.94;;;19.49;100.00
8075;BME280;4080;42.676;23.372;2022-09-09T00:46:48;95297.41;;;19.46;100.00
8075;BME280;4080;42.676;23.372;2022-09-09T00:49:28;95291.13;;;19.50;100.00
8075;BME280;4080;42.676;23.372;2022-09-09T00:52:08;95243.47;;;19.18;100.00
8075;BME280;4080;42.676;23.372;2022-09-09T00:54:51;95294.56;;;19.51;100.00
8075;BME280;4080;42.676;23.372;2022-09-09T00:57:26;95298.81;;;19.52;100.00
8075;BME280;4080;42.676;23.372;2022-09-09T01:00:15;95293.97;;;19.45;100.00
8075;BME280;4080;42.676;23.372;2022-09-09T01:02:52;95292.22;;;19.49;100.00
8075;BME280;4080;42.676;23.372;2022-09-09T01:05:29;95290.50;;;19.45;100.00
8075;BME280;4080;42.676;23.372;2022-09-09T01:08:01;95296.31;;;19.56;100.00
8075;BME280;4080;42.676;23.372;2022-09-09T01:10:37;95289.88;;;19.57;100.00
8075;BME280;4080;42.676;23.372;2022-09-09T01:13:13;95284.38;;;19.44;100.00
8075;BME280;4080;42.676;23.372;2022-09-09T01:15:42;95287.81;;;19.45;100.00
8075;BME280;4080;42.676;23.372;2022-09-09T01:18:15;95306.84;;;19.52;100.00
8075;BME280;4080;42.676;23.372;2022-09-09T01:20:47;95304.66;;;19.54;100.00
8075;BME280;4080;42.676;23.372;2022-09-09T01:23:36;95307.19;;;19.59;100.00
8075;BME280;4080;42.676;23.372;2022-09-09T01:26:13;95285.28;;;19.48;100.00
8075;BME280;4080;42.676;23.372;2022-09-09T01:28:44;95299.47;;;19.58;100.00
8075;BME280;4080;42.676;23.372;2022-09-09T01:31:15;95288.13;;;19.52;100.00
8075;BME280;4080;42.676;23.372;2022-09-09T01:33:43;95299.66;;;19.61;100.00
8075;BME280;4080;42.676;23.372;2022-09-09T01:36:14;95302.94;;;19.67;100.00
8075;BME280;4080;42.676;23.372;2022-09-09T01:38:44;95301.66;;;19.73;100.00
8075;BME280;4080;42.676;23.372;2022-09-09T01:41:12;95319.94;;;19.71;100.00
8075;BME280;4080;42.676;23.372;2022-09-09T01:43:38;95312.06;;;19.66;100.00
8075;BME280;4080;42.676;23.372;2022-09-09T01:46:05;95315.03;;;19.73;100.00
8075;BME280;4080;42.676;23.372;2022-09-09T01:48:33;95312.84;;;19.75;100.00
8075;BME280;4080;42.676;23.372;2022-09-09T01:51:00;95317.25;;;19.71;100.00
8075;BME280;4080;42.676;23.372;2022-09-09T01:53:26;95315.84;;;19.65;100.00
8075;BME280;4080;42.676;23.372;2022-09-09T01:56:01;95321.38;;;19.60;100.00
8075;BME280;4080;42.676;23.372;2022-09-09T01:58:40;95321.97;;;19.57;100.00
8075;BME280;4080;42.676;23.372;2022-09-09T02:01:20;95325.44;;;19.57;100.00
8075;BME280;4080;42.676;23.372;2022-09-09T02:03:52;95307.34;;;19.45;100.00
8075;BME280;4080;42.676;23.372;2022-09-09T02:06:26;95324.97;;;19.64;100.00
8075;BME280;4080;42.676;23.372;2022-09-09T02:08:56;95305.78;;;19.62;100.00
8075;BME280;4080;42.676;23.372;2022-09-09T02:11:24;95312.06;;;19.66;100.00
8075;BME280;4080;42.676;23.372;2022-09-09T02:13:56;95312.06;;;19.66;100.00
8075;BME280;4080;42.676;23.372;2022-09-09T02:16:26;95311.75;;;19.67;100.00
8075;BME280;4080;42.676;23.372;2022-09-09T02:18:57;95305.91;;;19.74;100.00
8075;BME280;4080;42.676;23.372;2022-09-09T02:21:29;95301.66;;;19.73;100.00
8075;BME280;4080;42.676;23.372;2022-09-09T02:23:59;95290.03;;;19.69;100.00
8075;BME280;4080;42.676;23.372;2022-09-09T02:26:30;95298.22;;;19.64;100.00
8075;BME280;4080;42.676;23.372;2022-09-09T02:29:02;95298.69;;;19.57;100.00
8075;BME280;4080;42.676;23.372;2022-09-09T02:31:33;95306.69;;;19.48;100.00
8075;BME280;4080;42.676;23.372;2022-09-09T02:34:01;95295.38;;;19.34;100.00
8075;BME280;4080;42.676;23.372;2022-09-09T02:36:32;95304.19;;;19.26;100.00
8075;BME280;4080;42.676;23.372;2022-09-09T02:39:01;95301.38;;;19.31;100.00
8075;BME280;4080;42.676;23.372;2022-09-09T02:41:32;95303.59;;;19.29;100.00
8075;BME280;4080;42.676;23.372;2022-09-09T02:44:01;95314.28;;;19.29;100.00
8075;BME280;4080;42.676;23.372;2022-09-09T02:46:39;95314.56;;;19.28;100.00
8075;BME280;4080;42.676;23.372;2022-09-09T02:49:17;95279.03;;;19.01;100.00
8075;BME280;4080;42.676;23.372;2022-09-09T02:51:53;95317.09;;;19.24;100.00
8075;BME280;4080;42.676;23.372;2022-09-09T02:54:27;95315.06;;;19.30;100.00
8075;BME280;4080;42.676;23.372;2022-09-09T02:57:00;95322.28;;;19.46;100.00
8075;BME280;4080;42.676;23.372;2022-09-09T02:59:30;95319.31;;;19.57;100.00
8075;BME280;4080;42.676;23.372;2022-09-09T03:01:57;95306.41;;;19.59;100.00
8075;BME280;4080;42.676;23.372;2022-09-09T03:04:24;95310.50;;;19.65;100.00
8075;BME280;4080;42.676;23.372;2022-09-09T03:06:50;95249.78;;;19.31;100.00
8075;BME280;4080;42.676;23.372;2022-09-09T03:09:17;95319.78;;;19.59;100.00
8075;BME280;4080;42.676;23.372;2022-09-09T03:11:44;95325.91;;;19.16;100.00
8075;BME280;4080;42.676;23.372;2022-09-09T03:14:11;95318.78;;;18.85;100.00
8075;BME280;4080;42.676;23.372;2022-09-09T03:16:39;95319.41;;;18.74;100.00
8075;BME280;4080;42.676;23.372;2022-09-09T03:19:05;95323.19;;;18.73;100.00
8075;BME280;4080;42.676;23.372;2022-09-09T03:21:32;95319.56;;;18.77;100.00
8075;BME280;4080;42.676;23.372;2022-09-09T03:23:59;95321.31;;;18.90;100.00
8075;BME280;4080;42.676;23.372;2022-09-09T03:26:28;95314.91;;;19.09;100.00
8075;BME280;4080;42.676;23.372;2022-09-09T03:28:55;95298.84;;;19.09;100.00
8075;BME280;4080;42.676;23.372;2022-09-09T03:31:22;95306.69;;;18.97;100.00
8075;BME280;4080;42.676;23.372;2022-09-09T03:33:50;95320.38;;;18.95;100.00
8075;BME280;4080;42.676;23.372;2022-09-09T03:36:17;95313.53;;;18.63;100.00
8075;BME280;4080;42.676;23.372;2022-09-09T03:38:44;95322.84;;;18.35;100.00
8075;BME280;4080;42.676;23.372;2022-09-09T03:41:10;95319.31;;;18.08;100.00
8075;BME280;4080;42.676;23.372;2022-09-09T03:43:38;95316.66;;;17.86;100.00
8075;BME280;4080;42.676;23.372;2022-09-09T03:46:05;95311.00;;;17.79;100.00
8075;BME280;4080;42.676;23.372;2022-09-09T03:48:32;95276.84;;;17.67;100.00
8075;BME280;4080;42.676;23.372;2022-09-09T03:51:00;95317.03;;;17.93;100.00
8075;BME280;4080;42.676;23.372;2022-09-09T03:53:28;95309.09;;;17.79;100.00
8075;BME280;4080;42.676;23.372;2022-09-09T03:55:56;95323.84;;;18.08;100.00
8075;BME280;4080;42.676;23.372;2022-09-09T03:58:25;95324.88;;;18.29;100.00
8075;BME280;4080;42.676;23.372;2022-09-09T04:00:54;95327.59;;;18.38;100.00
8075;BME280;4080;42.676;23.372;2022-09-09T04:03:21;95314.09;;;18.43;100.00
8075;BME280;4080;42.676;23.372;2022-09-09T04:05:50;95337.00;;;18.75;100.00
8075;BME280;4080;42.676;23.372;2022-09-09T04:08:18;95342.53;;;18.96;100.00
8075;BME280;4080;42.676;23.372;2022-09-09T04:10:45;95333.91;;;19.07;100.00
8075;BME280;4080;42.676;23.372;2022-09-09T04:13:13;95329.19;;;19.21;100.00
8075;BME280;4080;42.676;23.372;2022-09-09T04:15:44;95335.50;;;19.34;100.00
8075;BME280;4080;42.676;23.372;2022-09-09T04:18:11;95287.34;;;19.17;100.00
8075;BME280;4080;42.676;23.372;2022-09-09T04:20:37;95324.00;;;19.77;100.00
8075;BME280;4080;42.676;23.372;2022-09-09T04:23:04;95328.16;;;20.12;100.00
8075;BME280;4080;42.676;23.372;2022-09-09T04:25:33;95325.31;;;20.17;100.00
8075;BME280;4080;42.676;23.372;2022-09-09T04:28:00;95332.72;;;20.21;100.00
8075;BME280;4080;42.676;23.372;2022-09-09T04:30:27;95327.06;;;20.13;100.00
8075;BME280;4080;42.676;23.372;2022-09-09T04:32:54;95328.78;;;20.18;100.00
8075;BME280;4080;42.676;23.372;2022-09-09T04:35:21;95335.09;;;20.22;100.00
8075;BME280;4080;42.676;23.372;2022-09-09T04:37:48;95329.97;;;20.38;100.00
8075;BME280;4080;42.676;23.372;2022-09-09T04:40:15;95340.19;;;20.53;100.00
8075;BME280;4080;42.676;23.372;2022-09-09T04:42:43;95343.34;;;20.55;100.00
8075;BME280;4080;42.676;23.372;2022-09-09T04:45:10;95342.59;;;20.37;100.00
8075;BME280;4080;42.676;23.372;2022-09-09T04:47:38;95339.19;;;20.11;100.00
8075;BME280;4080;42.676;23.372;2022-09-09T04:50:07;95339.09;;;19.81;100.00
8075;BME280;4080;42.676;23.372;2022-09-09T04:52:34;95339.78;;;19.61;100.00
8075;BME280;4080;42.676;23.372;2022-09-09T04:55:01;95325.13;;;19.76;100.00
8075;BME280;4080;42.676;23.372;2022-09-09T04:57:27;95255.22;;;19.51;100.00
8075;BME280;4080;42.676;23.372;2022-09-09T04:59:58;95326.56;;;20.20;100.00
8075;BME280;4080;42.676;23.372;2022-09-09T05:02:25;95322.69;;;20.56;100.00
8075;BME280;4080;42.676;23.372;2022-09-09T05:04:52;95332.91;;;20.92;100.00
8075;BME280;4080;42.676;23.372;2022-09-09T05:07:19;95332.47;;;21.31;100.00
8075;BME280;4080;42.676;23.372;2022-09-09T05:09:46;95318.97;;;21.61;100.00
8075;BME280;4080;42.676;23.372;2022-09-09T05:12:14;95307.00;;;21.91;100.00
8075;BME280;4080;42.676;23.372;2022-09-09T05:14:41;95308.19;;;22.27;100.00
8075;BME280;4080;42.676;23.372;2022-09-09T05:17:10;95286.72;;;22.39;100.00
8075;BME280;4080;42.676;23.372;2022-09-09T05:19:38;95320.00;;;22.83;100.00
8075;BME280;4080;42.676;23.372;2022-09-09T05:22:05;95332.31;;;23.09;100.00
8075;BME280;4080;42.676;23.372;2022-09-09T05:24:32;95319.94;;;23.32;100.00
8075;BME280;4080;42.676;23.372;2022-09-09T05:26:59;95315.56;;;23.68;100.00
8075;BME280;4080;42.676;23.372;2022-09-09T05:29:27;95320.94;;;23.96;100.00
8075;BME280;4080;42.676;23.372;2022-09-09T05:31:54;95316.97;;;24.21;100.00
8075;BME280;4080;42.676;23.372;2022-09-09T05:34:22;95323.78;;;24.46;99.61
8075;BME280;4080;42.676;23.372;2022-09-09T05:36:49;95319.25;;;24.66;97.79
8075;BME280;4080;42.676;23.372;2022-09-09T05:39:17;95318.81;;;24.80;96.49
8075;BME280;4080;42.676;23.372;2022-09-09T05:41:44;95325.91;;;25.04;95.76
8075;BME280;4080;42.676;23.372;2022-09-09T05:44:11;95327.47;;;25.21;93.98
8075;BME280;4080;42.676;23.372;2022-09-09T05:46:39;95326.69;;;25.04;92.67
8075;BME280;4080;42.676;23.372;2022-09-09T05:49:06;95328.81;;;25.11;93.60
8075;BME280;4080;42.676;23.372;2022-09-09T05:51:35;95334.41;;;25.22;91.39
8075;BME280;4080;42.676;23.372;2022-09-09T05:54:03;95330.44;;;25.35;90.76
8075;BME280;4080;42.676;23.372;2022-09-09T05:56:30;95333.47;;;25.49;89.83
8075;BME280;4080;42.676;23.372;2022-09-09T05:58:58;95334.03;;;25.58;89.22
8075;BME280;4080;42.676;23.372;2022-09-09T06:01:27;95334.38;;;25.57;87.87
8075;BME280;4080;42.676;23.372;2022-09-09T06:03:54;95342.19;;;25.62;84.34
8075;BME280;4080;42.676;23.372;2022-09-09T06:06:24;95307.94;;;25.47;82.72
8075;BME280;4080;42.676;23.372;2022-09-09T06:08:54;95335.91;;;25.74;81.85
8075;BME280;4080;42.676;23.372;2022-09-09T06:11:24;95317.69;;;25.71;82.67
8075;BME280;4080;42.676;23.372;2022-09-09T06:13:52;95343.63;;;25.94;82.42
8075;BME280;4080;42.676;23.372;2022-09-09T06:16:21;95344.84;;;25.97;82.56
8075;BME280;4080;42.676;23.372;2022-09-09T06:18:49;95340.13;;;26.13;79.59
8075;BME280;4080;42.676;23.372;2022-09-09T06:21:17;95342.28;;;26.04;79.35
8075;BME280;4080;42.676;23.372;2022-09-09T06:23:45;95347.69;;;26.04;78.89
8075;BME280;4080;42.676;23.372;2022-09-09T06:26:16;95334.97;;;26.05;77.87
8075;BME280;4080;42.676;23.372;2022-09-09T06:28:44;95316.59;;;25.94;78.29
8075;BME280;4080;42.676;23.372;2022-09-09T06:31:14;95361.09;;;26.39;77.02
8075;BME280;4080;42.676;23.372;2022-09-09T06:33:43;95344.81;;;26.36;76.27
8075;BME280;4080;42.676;23.372;2022-09-09T06:36:12;95344.19;;;26.46;76.34
8075;BME280;4080;42.676;23.372;2022-09-09T06:38:40;95297.94;;;26.31;75.47
8075;BME280;4080;42.676;23.372;2022-09-09T06:41:08;95318.09;;;26.57;75.03
8075;BME280;4080;42.676;23.372;2022-09-09T06:43:36;95333.44;;;26.72;73.46
8075;BME280;4080;42.676;23.372;2022-09-09T06:46:05;95327.41;;;26.59;74.77
8075;BME280;4080;42.676;23.372;2022-09-09T06:48:34;95324.53;;;26.72;76.15
8075;BME280;4080;42.676;23.372;2022-09-09T06:51:03;95326.81;;;26.70;73.64
8075;BME280;4080;42.676;23.372;2022-09-09T06:53:31;95330.97;;;26.64;75.01
8075;BME280;4080;42.676;23.372;2022-09-09T06:55:59;95343.94;;;26.54;73.50
8075;BME280;4080;42.676;23.372;2022-09-09T06:58:27;95338.84;;;26.49;73.62
8075;BME280;4080;42.676;23.372;2022-09-09T07:01:03;95354.50;;;26.37;74.96
8075;BME280;4080;42.676;23.372;2022-09-09T07:03:30;95346.84;;;26.65;75.34
8075;BME280;4080;42.676;23.372;2022-09-09T07:05:58;95328.91;;;26.80;73.62
8075;BME280;4080;42.676;23.372;2022-09-09T07:08:24;95359.19;;;27.12;71.24
8075;BME280;4080;42.676;23.372;2022-09-09T07:10:52;95339.31;;;27.01;73.69
8075;BME280;4080;42.676;23.372;2022-09-09T07:13:19;95347.44;;;27.01;71.63
8075;BME280;4080;42.676;23.372;2022-09-09T07:15:50;95343.91;;;26.74;72.43
8075;BME280;4080;42.676;23.372;2022-09-09T07:18:19;95311.94;;;26.34;73.12
8075;BME280;4080;42.676;23.372;2022-09-09T07:20:52;95344.19;;;26.69;74.25
8075;BME280;4080;42.676;23.372;2022-09-09T07:23:19;95342.72;;;26.98;75.16
8075;BME280;4080;42.676;23.372;2022-09-09T07:25:46;95340.69;;;27.17;74.48
8075;BME280;4080;42.676;23.372;2022-09-09T07:28:13;95338.69;;;27.41;74.86
8075;BME280;4080;42.676;23.372;2022-09-09T07:30:40;95343.50;;;27.54;72.35
8075;BME280;4080;42.676;23.372;2022-09-09T07:33:08;95339.50;;;27.71;71.55
8075;BME280;4080;42.676;23.372;2022-09-09T07:35:37;95334.28;;;27.89;69.59
8075;BME280;4080;42.676;23.372;2022-09-09T07:38:03;95340.41;;;27.82;68.77
8075;BME280;4080;42.676;23.372;2022-09-09T07:40:32;95330.66;;;27.78;68.08
8075;BME280;4080;42.676;23.372;2022-09-09T07:42:59;95289.66;;;27.49;68.48
8075;BME280;4080;42.676;23.372;2022-09-09T07:45:26;95337.97;;;28.07;67.30
8075;BME280;4080;42.676;23.372;2022-09-09T07:47:53;95337.41;;;28.25;67.26
8075;BME280;4080;42.676;23.372;2022-09-09T07:50:23;95329.66;;;28.27;67.44
8075;BME280;4080;42.676;23.372;2022-09-09T07:52:52;95346.69;;;28.68;66.55
8075;BME280;4080;42.676;23.372;2022-09-09T07:55:20;95342.72;;;29.02;66.08
8075;BME280;4080;42.676;23.372;2022-09-09T07:57:50;95344.03;;;29.26;64.80
8075;BME280;4080;42.676;23.372;2022-09-09T08:00:17;95346.94;;;29.55;61.50
8075;BME280;4080;42.676;23.372;2022-09-09T08:02:45;95342.00;;;29.82;62.85
8075;BME280;4080;42.676;23.372;2022-09-09T08:05:12;95346.78;;;30.10;62.00
8075;BME280;4080;42.676;23.372;2022-09-09T08:07:39;95348.41;;;30.32;59.79
8075;BME280;4080;42.676;23.372;2022-09-09T08:10:08;95337.09;;;30.19;58.83
8075;BME280;4080;42.676;23.372;2022-09-09T08:12:35;95353.41;;;30.19;58.37
8075;BME280;4080;42.676;23.372;2022-09-09T08:15:02;95341.34;;;30.06;60.50
8075;BME280;4080;42.676;23.372;2022-09-09T08:17:29;95338.16;;;29.93;61.59
8075;BME280;4080;42.676;23.372;2022-09-09T08:19:55;95341.66;;;29.97;61.36
8075;BME280;4080;42.676;23.372;2022-09-09T08:22:22;95343.22;;;29.98;60.84
8075;BME280;4080;42.676;23.372;2022-09-09T08:24:49;95342.91;;;30.04;60.21
8075;BME280;4080;42.676;23.372;2022-09-09T08:27:18;95333.97;;;30.21;59.92
8075;BME280;4080;42.676;23.372;2022-09-09T08:29:44;95340.25;;;30.32;58.46
8075;BME280;4080;42.676;23.372;2022-09-09T08:32:11;95348.72;;;30.06;59.49
8075;BME280;4080;42.676;23.372;2022-09-09T08:34:39;95329.81;;;29.47;61.09
8075;BME280;4080;42.676;23.372;2022-09-09T08:37:07;95326.38;;;28.95;63.94
8075;BME280;4080;42.676;23.372;2022-09-09T08:39:33;95329.69;;;28.74;66.27
8075;BME280;4080;42.676;23.372;2022-09-09T08:42:22;95325.34;;;28.66;66.15
8075;BME280;4080;42.676;23.372;2022-09-09T08:45:19;95327.78;;;28.79;66.57
8075;BME280;4080;42.676;23.372;2022-09-09T08:47:57;95303.56;;;28.56;65.45
8075;BME280;4080;42.676;23.372;2022-09-09T08:50:29;95322.75;;;28.33;66.85
8075;BME280;4080;42.676;23.372;2022-09-09T08:53:02;95317.81;;;28.08;68.62
8075;BME280;4080;42.676;23.372;2022-09-09T08:55:37;95313.84;;;27.99;70.29
8075;BME280;4080;42.676;23.372;2022-09-09T08:58:13;95309.53;;;28.28;69.47
8075;BME280;4080;42.676;23.372;2022-09-09T09:00:47;95315.22;;;28.60;68.65
8075;BME280;4080;42.676;23.372;2022-09-09T09:03:25;95315.53;;;28.99;68.72
8075;BME280;4080;42.676;23.372;2022-09-09T09:06:01;95321.88;;;29.17;64.04
8075;BME280;4080;42.676;23.372;2022-09-09T09:08:37;95318.78;;;29.19;64.30
8075;BME280;4080;42.676;23.372;2022-09-09T09:11:06;95316.88;;;29.26;65.02
8075;BME280;4080;42.676;23.372;2022-09-09T09:13:40;95321.22;;;29.42;65.85
8075;BME280;4080;42.676;23.372;2022-09-09T09:16:16;95324.56;;;29.90;65.96
8075;BME280;4080;42.676;23.372;2022-09-09T09:18:45;95328.94;;;30.26;61.36
8075;BME280;4080;42.676;23.372;2022-09-09T09:21:15;95318.81;;;30.27;61.31
8075;BME280;4080;42.676;23.372;2022-09-09T09:23:51;95317.53;;;29.85;61.53
8075;BME280;4080;42.676;23.372;2022-09-09T09:26:22;95321.31;;;29.56;63.54
8075;BME280;4080;42.676;23.372;2022-09-09T09:29:12;95312.66;;;29.36;64.08
8075;BME280;4080;42.676;23.372;2022-09-09T09:31:42;95296.13;;;28.97;64.84
8075;BME280;4080;42.676;23.372;2022-09-09T09:34:11;95317.41;;;28.88;67.15
8075;BME280;4080;42.676;23.372;2022-09-09T09:36:41;95320.50;;;28.86;66.77
8075;BME280;4080;42.676;23.372;2022-09-09T09:39:10;95266.34;;;28.56;66.87
8075;BME280;4080;42.676;23.372;2022-09-09T09:41:39;95299.88;;;28.82;68.23
8075;BME280;4080;42.676;23.372;2022-09-09T09:44:23;95312.41;;;28.97;68.58
8075;BME280;4080;42.676;23.372;2022-09-09T09:46:51;95300.78;;;28.96;67.85
8075;BME280;4080;42.676;23.372;2022-09-09T09:49:22;95303.22;;;29.09;66.44
8075;BME280;4080;42.676;23.372;2022-09-09T09:51:49;95291.53;;;29.08;66.26
8075;BME280;4080;42.676;23.372;2022-09-09T09:54:24;95288.81;;;29.08;65.92
8075;BME280;4080;42.676;23.372;2022-09-09T09:56:54;95284.16;;;29.05;67.91
8075;BME280;4080;42.676;23.372;2022-09-09T09:59:33;95297.00;;;29.12;67.97
8075;BME280;4080;42.676;23.372;2022-09-09T10:02:18;95286.53;;;29.14;66.04
8075;BME280;4080;42.676;23.372;2022-09-09T10:04:45;95290.81;;;29.15;66.33
8075;BME280;4080;42.676;23.372;2022-09-09T10:07:16;95277.63;;;29.13;67.31
8075;BME280;4080;42.676;23.372;2022-09-09T10:09:43;95291.63;;;29.22;66.77
8075;BME280;4080;42.676;23.372;2022-09-09T10:12:17;95297.88;;;29.30;68.45
8075;BME280;4080;42.676;23.372;2022-09-09T10:14:54;95298.25;;;29.28;67.99
8075;BME280;4080;42.676;23.372;2022-09-09T10:17:30;95293.16;;;29.20;68.42
8075;BME280;4080;42.676;23.372;2022-09-09T10:20:16;95284.97;;;29.09;66.77
8075;BME280;4080;42.676;23.372;2022-09-09T10:22:50;95292.94;;;28.84;69.18
8075;BME280;4080;42.676;23.372;2022-09-09T10:28:27;95290.31;;;28.47;71.74
8075;BME280;4080;42.676;23.372;2022-09-09T10:31:07;95293.16;;;28.21;71.42
8075;BME280;4080;42.676;23.372;2022-09-09T10:33:43;95294.88;;;27.99;73.74
8075;BME280;4080;42.676;23.372;2022-09-09T10:36:17;95296.81;;;27.98;74.41
8075;BME280;4080;42.676;23.372;2022-09-09T10:38:47;95291.81;;;28.04;73.49
8075;BME280;4080;42.676;23.372;2022-09-09T10:41:19;95300.34;;;28.02;73.23
8075;BME280;4080;42.676;23.372;2022-09-09T10:44:02;95269.53;;;27.84;72.99
8075;BME280;4080;42.676;23.372;2022-09-09T10:46:45;95294.81;;;27.92;73.08
8075;BME280;4080;42.676;23.372;2022-09-09T10:49:23;95299.47;;;27.91;73.91
8075;BME280;4080;42.676;23.372;2022-09-09T10:52:00;95300.59;;;27.90;75.00
8075;BME280;4080;42.676;23.372;2022-09-09T10:54:44;95299.78;;;27.86;75.56
8075;BME280;4080;42.676;23.372;2022-09-09T10:57:17;95298.88;;;27.75;74.73
8075;BME280;4080;42.676;23.372;2022-09-09T10:59:51;95298.88;;;27.75;75.98
8075;BME280;4080;42.676;23.372;2022-09-09T11:02:26;95294.97;;;27.72;77.25
8075;BME280;4080;42.676;23.372;2022-09-09T11:04:56;95290.28;;;27.66;77.64
8075;BME280;4080;42.676;23.372;2022-09-09T11:07:29;95281.25;;;27.58;78.76
8075;BME280;4080;42.676;23.372;2022-09-09T11:10:04;95299.06;;;27.59;78.71
8075;BME280;4080;42.676;23.372;2022-09-09T11:12:34;95299.72;;;27.49;79.67
8075;BME280;4080;42.676;23.372;2022-09-09T11:15:06;95295.31;;;27.37;80.43
8075;BME280;4080;42.676;23.372;2022-09-09T11:17:42;95297.91;;;27.27;80.51
8075;BME280;4080;42.676;23.372;2022-09-09T11:20:13;95295.06;;;27.19;80.97
8075;BME280;4080;42.676;23.372;2022-09-09T11:22:46;95291.94;;;27.17;81.61
8075;BME280;4080;42.676;23.372;2022-09-09T11:25:16;95277.31;;;27.22;82.60
8075;BME280;4080;42.676;23.372;2022-09-09T11:27:58;95283.63;;;27.30;81.36
8075;BME280;4080;42.676;23.372;2022-09-09T11:30:36;95279.88;;;27.41;81.97
8075;BME280;4080;42.676;23.372;2022-09-09T11:33:26;95274.66;;;27.56;81.43
8075;BME280;4080;42.676;23.372;2022-09-09T11:36:11;95267.06;;;27.68;82.30
8075;BME280;4080;42.676;23.372;2022-09-09T11:38:45;95267.91;;;27.76;80.71
8075;BME280;4080;42.676;23.372;2022-09-09T11:41:14;95239.94;;;27.65;80.07
8075;BME280;4080;42.676;23.372;2022-09-09T11:43:43;95249.28;;;27.71;80.47
8075;BME280;4080;42.676;23.372;2022-09-09T11:46:12;95239.25;;;27.75;81.54
8075;BME280;4080;42.676;23.372;2022-09-09T11:48:43;95235.72;;;27.71;82.45
8075;BME280;4080;42.676;23.372;2022-09-09T11:51:12;95231.47;;;27.70;82.30
8075;BME280;4080;42.676;23.372;2022-09-09T11:53:49;95208.22;;;27.69;82.36
8075;BME280;4080;42.676;23.372;2022-09-09T11:56:26;95181.06;;;27.62;81.43
8075;BME280;4080;42.676;23.372;2022-09-09T11:58:56;95182.53;;;27.56;80.86
8075;BME280;4080;42.676;23.372;2022-09-09T12:01:38;95166.84;;;27.38;81.79
8075;BME280;4080;42.676;23.372;2022-09-09T12:07:00;95227.41;;;27.90;81.20
8075;BME280;4080;42.676;23.372;2022-09-09T12:09:38;95219.41;;;28.08;80.16
8075;BME280;4080;42.676;23.372;2022-09-09T12:12:37;95214.22;;;28.33;78.67
8075;BME280;4080;42.676;23.372;2022-09-09T12:15:20;95196.38;;;28.28;78.81
8075;BME280;4080;42.676;23.372;2022-09-09T12:17:49;95205.41;;;28.47;78.68
8075;BME280;4080;42.676;23.372;2022-09-09T12:20:19;95200.34;;;28.45;78.10
8075;BME280;4080;42.676;23.372;2022-09-09T12:23:16;95198.81;;;28.44;79.33
8075;BME280;4080;42.676;23.372;2022-09-09T12:26:00;95202.38;;;28.52;78.02
8075;BME280;4080;42.676;23.372;2022-09-09T12:28:41;95202.41;;;28.59;78.15
8075;BME280;4080;42.676;23.372;2022-09-09T12:31:14;95202.44;;;28.66;79.05
8075;BME280;4080;42.676;23.372;2022-09-09T12:33:44;95194.47;;;28.91;78.72
8075;BME280;4080;42.676;23.372;2022-09-09T12:36:16;95189.94;;;29.16;78.46
8075;BME280;4080;42.676;23.372;2022-09-09T12:38:45;95162.41;;;29.25;76.88
8075;BME280;4080;42.676;23.372;2022-09-09T12:41:22;95176.81;;;29.40;76.53
8075;BME280;4080;42.676;23.372;2022-09-09T12:43:50;95176.00;;;29.35;76.38
8075;BME280;4080;42.676;23.372;2022-09-09T12:46:24;95150.34;;;29.15;76.38
8075;BME280;4080;42.676;23.372;2022-09-09T12:48:56;95177.16;;;29.27;77.43
8075;BME280;4080;42.676;23.372;2022-09-09T12:51:28;95172.88;;;29.23;77.02
8075;BME280;4080;42.676;23.372;2022-09-09T12:53:55;95178.28;;;29.19;77.53
8075;BME280;4080;42.676;23.372;2022-09-09T12:56:25;95177.44;;;29.01;78.29
8075;BME280;4080;42.676;23.372;2022-09-09T12:58:54;95171.59;;;28.92;78.77
8075;BME280;4080;42.676;23.372;2022-09-09T13:01:26;95163.38;;;28.81;79.09
8075;BME280;4080;42.676;23.372;2022-09-09T13:03:54;95111.31;;;28.65;79.22
8075;BME280;4080;42.676;23.372;2022-09-09T13:06:22;95165.88;;;29.15;79.27
8075;BME280;4080;42.676;23.372;2022-09-09T13:08:51;95160.47;;;29.25;77.21
8075;BME280;4080;42.676;23.372;2022-09-09T13:11:22;95149.09;;;28.95;79.04
8075;BME280;4080;42.676;23.372;2022-09-09T13:13:52;95152.84;;;28.76;80.41
8075;BME280;4080;42.676;23.372;2022-09-09T13:16:23;95141.53;;;28.60;80.69
8075;BME280;4080;42.676;23.372;2022-09-09T13:18:52;95159.00;;;28.62;80.52
8075;BME280;4080;42.676;23.372;2022-09-09T13:21:31;95149.69;;;28.63;80.04
8075;BME280;4080;42.676;23.372;2022-09-09T13:23:59;95142.34;;;28.67;80.51
8075;BME280;4080;42.676;23.372;2022-09-09T13:26:28;95138.50;;;28.75;80.40
8075;BME280;4080;42.676;23.372;2022-09-09T13:29:09;95145.22;;;28.96;80.80
8075;BME280;4080;42.676;23.372;2022-09-09T13:31:43;95133.59;;;28.95;79.18
8075;BME280;4080;42.676;23.372;2022-09-09T13:34:13;95130.47;;;28.90;79.74